createdAt,value
2024-01-19T00:02:03.972Z,8.42
2024-01-19T00:04:31.967Z,8.51
2024-01-19T00:07:00.098Z,8.54
2024-01-19T00:09:28.504Z,8.37
2024-01-19T00:11:56.561Z,8.39
2024-01-19T00:14:24.678Z,8.37
2024-01-19T00:16:52.833Z,8.19
2024-01-19T00:19:20.844Z,8.28
2024-01-19T00:21:48.838Z,8.32
2024-01-19T00:24:17.029Z,8.31
2024-01-19T00:26:48.141Z,8.01
2024-01-19T00:29:16.529Z,8.16
2024-01-19T00:31:47.134Z,8.02
2024-01-19T00:34:18.161Z,8.04
2024-01-19T00:36:46.201Z,8.11
2024-01-19T00:39:16.106Z,8.19
2024-01-19T00:41:44.234Z,8.19
2024-01-19T00:44:12.271Z,8.20
2024-01-19T00:46:40.390Z,8.24
2024-01-19T00:49:08.335Z,8.22
2024-01-19T00:51:36.550Z,8.12
2024-01-19T00:54:05.357Z,8.16
2024-01-19T00:56:33.594Z,8.00
2024-01-19T00:59:01.815Z,8.04
2024-01-19T01:01:29.865Z,8.08
2024-01-19T01:03:59.859Z,8.10
2024-01-19T01:06:30.349Z,7.77
2024-01-19T01:08:59.909Z,7.88
2024-01-19T01:11:29.036Z,7.93
2024-01-19T01:13:57.201Z,7.91
2024-01-19T01:16:27.794Z,7.90
2024-01-19T01:18:56.200Z,7.65
2024-01-19T01:21:24.289Z,7.56
2024-01-19T01:23:52.492Z,7.59
2024-01-19T01:26:20.735Z,7.60
2024-01-19T01:28:49.072Z,7.65
2024-01-19T01:31:17.042Z,7.57
2024-01-19T01:33:45.464Z,7.59
2024-01-19T01:36:13.618Z,7.58
2024-01-19T01:38:41.710Z,7.38
2024-01-19T01:41:09.939Z,7.43
2024-01-19T01:43:37.999Z,7.52
2024-01-19T01:46:06.157Z,7.26
2024-01-19T01:48:34.441Z,7.25
2024-01-19T01:51:03.044Z,7.13
2024-01-19T01:53:31.437Z,6.84
2024-01-19T01:56:00.066Z,7.00
2024-01-19T01:58:28.069Z,7.13
2024-01-19T02:00:56.228Z,6.66
2024-01-19T02:03:24.500Z,6.97
2024-01-19T02:05:52.766Z,6.91
2024-01-19T02:08:21.121Z,6.87
2024-01-19T02:10:49.263Z,6.99
2024-01-19T02:13:18.265Z,7.05
2024-01-19T02:15:46.331Z,7.08
2024-01-19T02:18:15.387Z,7.18
2024-01-19T02:20:43.797Z,7.31
2024-01-19T02:23:15.328Z,7.29
2024-01-19T02:25:43.563Z,7.47
2024-01-19T02:28:12.151Z,7.60
2024-01-19T02:30:41.882Z,7.73
2024-01-19T02:33:11.201Z,7.57
2024-01-19T02:35:39.402Z,7.44
2024-01-19T02:38:07.374Z,7.53
2024-01-19T02:40:36.069Z,7.38
2024-01-19T02:43:04.154Z,7.43
2024-01-19T02:45:32.200Z,7.44
2024-01-19T02:48:00.283Z,7.46
2024-01-19T02:50:28.815Z,7.41
2024-01-19T02:52:56.837Z,7.54
2024-01-19T02:55:24.889Z,7.65
2024-01-19T02:57:52.892Z,7.65
2024-01-19T03:02:34.519Z,7.36
2024-01-19T03:05:03.062Z,7.26
2024-01-19T03:07:31.477Z,7.35
2024-01-19T03:09:59.500Z,7.39
2024-01-19T03:12:27.618Z,7.35
2024-01-19T03:14:55.698Z,7.49
2024-01-19T03:17:23.869Z,7.35
2024-01-19T03:19:51.926Z,7.47
2024-01-19T03:22:20.034Z,7.63
2024-01-19T03:24:47.992Z,7.69
2024-01-19T03:27:16.111Z,7.65
2024-01-19T03:29:45.606Z,7.64
2024-01-19T03:32:13.581Z,7.33
2024-01-19T03:34:42.445Z,7.55
2024-01-19T03:37:10.527Z,7.61
2024-01-19T03:39:38.710Z,7.64
2024-01-19T03:42:07.000Z,7.16
2024-01-19T03:44:35.262Z,7.13
2024-01-19T03:47:03.712Z,7.24
2024-01-19T03:49:31.674Z,7.37
2024-01-19T03:52:00.912Z,7.11
2024-01-19T03:54:29.174Z,7.18
2024-01-19T03:56:59.680Z,6.86
2024-01-19T03:59:28.559Z,6.90
2024-01-19T04:01:57.237Z,7.02
2024-01-19T04:04:26.561Z,6.88
2024-01-19T04:06:55.130Z,6.99
2024-01-19T04:09:23.443Z,7.10
2024-01-19T04:11:51.868Z,7.02
2024-01-19T04:14:20.615Z,7.08
2024-01-19T04:16:48.770Z,7.13
2024-01-19T04:19:17.029Z,7.03
2024-01-19T04:21:45.256Z,7.05
2024-01-19T04:24:13.460Z,7.10
2024-01-19T04:26:41.537Z,7.07
2024-01-19T04:29:11.359Z,7.01
2024-01-19T04:31:39.562Z,7.05
2024-01-19T04:34:08.097Z,6.82
2024-01-19T04:36:36.148Z,6.90
2024-01-19T04:39:04.932Z,6.67
2024-01-19T04:41:34.475Z,6.48
2024-01-19T04:44:02.636Z,6.61
2024-01-19T04:46:30.818Z,6.69
2024-01-19T04:48:58.853Z,6.66
2024-01-19T04:51:27.157Z,6.41
2024-01-19T04:53:55.297Z,6.37
2024-01-19T04:56:23.595Z,6.38
2024-01-19T04:58:51.676Z,6.58
2024-01-19T05:01:19.746Z,6.07
2024-01-19T05:03:47.762Z,6.04
2024-01-19T05:06:15.980Z,6.23
2024-01-19T05:08:44.069Z,5.97
2024-01-19T05:11:15.860Z,6.23
2024-01-19T05:13:44.749Z,6.19
2024-01-19T05:16:12.754Z,6.02
2024-01-19T05:18:42.124Z,6.27
2024-01-19T05:21:10.552Z,6.39
2024-01-19T05:23:38.731Z,5.94
2024-01-19T05:26:06.991Z,6.14
2024-01-19T05:28:37.859Z,6.27
2024-01-19T05:31:06.072Z,6.13
2024-01-19T05:33:38.699Z,6.28
2024-01-19T05:36:08.612Z,6.32
2024-01-19T05:38:36.697Z,6.22
2024-01-19T05:41:04.925Z,6.40
2024-01-19T05:43:34.008Z,6.25
2024-01-19T05:46:02.183Z,6.38
2024-01-19T05:48:30.392Z,6.56
2024-01-19T05:50:58.690Z,6.28
2024-01-19T05:53:26.870Z,6.56
2024-01-19T05:55:54.965Z,6.66
2024-01-19T05:58:23.299Z,6.40
2024-01-19T06:00:56.080Z,6.53
2024-01-19T06:03:24.211Z,6.58
2024-01-19T06:05:53.695Z,6.55
2024-01-19T06:08:22.075Z,6.45
2024-01-19T06:10:50.069Z,6.70
2024-01-19T06:13:18.329Z,6.75
2024-01-19T06:15:46.304Z,6.86
2024-01-19T06:18:14.497Z,6.88
2024-01-19T06:20:43.557Z,6.71
2024-01-19T06:23:13.805Z,6.75
2024-01-19T06:25:42.474Z,6.76
2024-01-19T06:28:12.352Z,6.82
2024-01-19T06:30:40.705Z,6.96
2024-01-19T06:33:08.894Z,7.12
2024-01-19T06:35:37.470Z,7.22
2024-01-19T06:38:08.731Z,7.31
2024-01-19T06:40:36.821Z,7.20
2024-01-19T06:43:04.863Z,7.04
2024-01-19T06:45:32.925Z,7.09
2024-01-19T06:48:01.139Z,7.26
2024-01-19T06:50:29.449Z,7.28
2024-01-19T06:53:03.305Z,7.44
2024-01-19T06:55:31.277Z,7.39
2024-01-19T06:57:59.369Z,7.72
2024-01-19T07:00:27.579Z,7.76
2024-01-19T07:02:56.281Z,8.00
2024-01-19T07:05:24.540Z,8.12
2024-01-19T07:07:52.761Z,8.35
2024-01-19T07:10:21.831Z,8.53
2024-01-19T07:12:49.935Z,8.63
2024-01-19T07:15:18.136Z,8.77
2024-01-19T07:17:46.128Z,8.91
2024-01-19T07:20:14.326Z,8.95
2024-01-19T07:22:42.426Z,9.18
2024-01-19T07:25:11.277Z,9.38
2024-01-19T07:27:39.238Z,9.27
2024-01-19T07:30:07.664Z,9.29
2024-01-19T07:32:50.766Z,9.47
2024-01-19T07:35:24.122Z,9.56
2024-01-19T07:37:52.176Z,9.79
2024-01-19T07:40:20.283Z,9.93
2024-01-19T07:42:48.249Z,10.12
2024-01-19T07:45:16.616Z,10.38
2024-01-19T07:47:44.733Z,10.65
2024-01-19T07:50:13.345Z,11.04
2024-01-19T07:52:41.660Z,11.03
2024-01-19T07:55:10.569Z,11.10
2024-01-19T07:57:38.666Z,11.12
2024-01-19T08:00:07.722Z,11.36
2024-01-19T08:02:36.178Z,11.48
2024-01-19T08:05:04.512Z,11.56
2024-01-19T08:07:32.612Z,11.73
2024-01-19T08:10:00.875Z,11.63
2024-01-19T08:12:29.399Z,11.84
2024-01-19T08:14:59.434Z,11.79
2024-01-19T08:17:27.761Z,11.63
2024-01-19T08:19:56.133Z,11.60
2024-01-19T08:22:24.540Z,11.56
2024-01-19T08:24:52.630Z,11.67
2024-01-19T08:27:20.682Z,11.69
2024-01-19T08:29:48.914Z,11.84
2024-01-19T08:32:17.123Z,11.97
2024-01-19T08:34:45.271Z,12.20
2024-01-19T08:37:13.384Z,12.71
2024-01-19T08:39:41.574Z,13.18
2024-01-19T08:42:09.797Z,13.82
2024-01-19T08:44:37.723Z,14.21
2024-01-19T08:47:05.953Z,14.34
2024-01-19T08:49:33.963Z,14.26
2024-01-19T08:52:02.174Z,14.24
2024-01-19T08:54:30.202Z,14.25
2024-01-19T08:56:59.397Z,14.07
2024-01-19T08:59:28.011Z,13.84
2024-01-19T09:01:57.755Z,13.72
2024-01-19T09:04:26.158Z,13.81
2024-01-19T09:06:59.246Z,13.92
2024-01-19T09:09:28.131Z,13.92
2024-01-19T09:11:58.229Z,14.02
2024-01-19T09:14:28.186Z,14.05
2024-01-19T09:16:56.409Z,14.60
2024-01-19T09:19:24.451Z,15.36
2024-01-19T09:21:52.537Z,15.88
2024-01-19T09:24:21.603Z,15.17
2024-01-19T09:26:49.847Z,15.00
2024-01-19T09:29:17.935Z,15.03
2024-01-19T09:31:47.965Z,14.96
2024-01-19T09:34:16.796Z,14.58
2024-01-19T09:36:44.736Z,14.50
2024-01-19T09:39:12.764Z,14.46
2024-01-19T09:41:47.780Z,14.15
2024-01-19T09:44:19.465Z,13.82
2024-01-19T09:46:53.302Z,13.78
2024-01-19T09:49:45.326Z,13.56
2024-01-19T09:52:32.056Z,13.54
2024-01-19T09:55:00.988Z,13.56
2024-01-19T09:57:32.363Z,13.44
2024-01-19T10:00:00.679Z,13.39
2024-01-19T10:02:29.781Z,13.31
2024-01-19T10:05:00.495Z,13.26
2024-01-19T10:07:30.189Z,13.28
2024-01-19T10:09:58.546Z,13.30
2024-01-19T10:12:27.829Z,13.31
2024-01-19T10:14:56.104Z,13.21
2024-01-19T10:17:24.590Z,13.31
2024-01-19T10:19:53.591Z,13.37
2024-01-19T10:22:28.453Z,13.28
2024-01-19T10:25:16.430Z,13.15
2024-01-19T10:27:50.226Z,13.26
2024-01-19T10:30:21.308Z,13.38
2024-01-19T10:32:51.715Z,13.39
2024-01-19T10:35:22.295Z,13.64
2024-01-19T10:37:51.511Z,14.01
2024-01-19T10:40:24.500Z,14.24
2024-01-19T10:42:58.272Z,14.59
2024-01-19T10:45:33.624Z,15.56
2024-01-19T10:48:04.939Z,17.01
2024-01-19T10:50:33.457Z,18.97
2024-01-19T10:53:02.680Z,20.91
2024-01-19T10:55:32.552Z,22.89
2024-01-19T10:58:07.738Z,23.74
2024-01-19T11:00:40.047Z,23.00
2024-01-19T11:03:08.317Z,22.25
2024-01-19T11:05:36.438Z,20.20
2024-01-19T11:08:05.386Z,19.62
2024-01-19T11:10:33.976Z,19.65
2024-01-19T11:13:03.618Z,20.84
2024-01-19T11:15:47.646Z,22.52
2024-01-19T11:18:16.720Z,23.55
2024-01-19T11:20:46.188Z,24.13
2024-01-19T11:23:15.914Z,24.66
2024-01-19T11:26:22.129Z,24.74
2024-01-19T11:29:16.780Z,25.70
2024-01-19T11:31:49.795Z,26.30
2024-01-19T11:34:52.663Z,26.08
2024-01-19T11:37:46.953Z,26.47
2024-01-19T11:40:26.944Z,27.27
2024-01-19T11:42:55.017Z,27.55
2024-01-19T11:45:44.325Z,27.77
2024-01-19T11:48:42.983Z,27.93
2024-01-19T11:51:33.907Z,27.40
2024-01-19T11:54:04.674Z,26.28
2024-01-19T11:56:33.382Z,24.87
2024-01-19T11:59:01.504Z,24.66
2024-01-19T12:01:29.522Z,23.82
2024-01-19T12:03:57.733Z,22.81
2024-01-19T12:06:26.108Z,21.93
2024-01-19T12:09:08.792Z,19.98
2024-01-19T12:11:37.388Z,18.42
2024-01-19T12:14:11.060Z,18.29
2024-01-19T12:16:39.924Z,17.27
2024-01-19T12:19:07.950Z,17.30
2024-01-19T12:21:36.090Z,17.23
2024-01-19T12:24:04.690Z,17.96
2024-01-19T12:26:32.749Z,18.16
2024-01-19T12:29:00.881Z,17.94
2024-01-19T12:31:38.499Z,17.78
2024-01-19T12:34:17.218Z,17.59
2024-01-19T12:36:45.572Z,17.41
2024-01-19T12:39:15.809Z,17.42
2024-01-19T12:41:44.715Z,17.39
2024-01-19T12:44:15.077Z,17.24
2024-01-19T12:46:51.380Z,17.30
2024-01-19T12:49:19.864Z,17.12
2024-01-19T12:51:48.077Z,16.77
2024-01-19T12:54:25.077Z,16.31
2024-01-19T12:56:53.233Z,16.34
2024-01-19T12:59:23.639Z,16.32
2024-01-19T13:01:52.718Z,16.63
2024-01-19T13:04:21.364Z,16.62
2024-01-19T13:06:51.176Z,16.72
2024-01-19T13:09:19.829Z,16.75
2024-01-19T13:11:48.043Z,16.66
2024-01-19T13:14:16.344Z,16.48
2024-01-19T13:16:58.235Z,16.34
2024-01-19T13:19:26.406Z,16.13
2024-01-19T13:21:57.019Z,15.90
2024-01-19T13:24:27.148Z,15.97
2024-01-19T13:27:04.522Z,16.03
2024-01-19T13:29:33.086Z,15.95
2024-01-19T13:32:01.753Z,15.94
2024-01-19T13:34:30.372Z,15.97
2024-01-19T13:36:59.076Z,16.02
2024-01-19T13:39:28.189Z,15.95
2024-01-19T13:41:57.125Z,15.99
2024-01-19T13:44:26.094Z,15.87
2024-01-19T13:46:54.586Z,15.39
2024-01-19T13:49:23.163Z,15.29
2024-01-19T13:51:51.529Z,15.35
2024-01-19T13:54:19.890Z,15.42
2024-01-19T13:56:47.929Z,15.40
2024-01-19T14:02:10.216Z,15.09
2024-01-19T14:04:42.102Z,15.06
2024-01-19T14:07:11.441Z,15.03
2024-01-19T14:09:39.795Z,15.05
2024-01-19T14:12:09.250Z,15.01
2024-01-19T14:14:38.927Z,14.97
2024-01-19T14:17:07.491Z,15.05
2024-01-19T14:19:36.461Z,14.98
2024-01-19T14:22:05.286Z,14.63
2024-01-19T14:24:34.144Z,14.71
2024-01-19T14:27:03.737Z,14.80
2024-01-19T14:29:32.954Z,14.84
2024-01-19T14:32:02.374Z,14.96
2024-01-19T14:34:36.611Z,14.75
2024-01-19T14:37:12.713Z,14.89
2024-01-19T14:39:41.807Z,14.89
2024-01-19T14:42:10.580Z,14.96
2024-01-19T14:44:39.338Z,14.73
2024-01-19T14:47:09.110Z,14.73
2024-01-19T14:49:39.811Z,14.71
2024-01-19T14:52:09.199Z,14.81
2024-01-19T14:54:38.791Z,14.74
2024-01-19T14:57:07.606Z,14.70
2024-01-19T14:59:36.290Z,14.71
2024-01-19T15:02:05.254Z,14.24
2024-01-19T15:04:33.906Z,14.20
2024-01-19T15:07:02.318Z,14.35
2024-01-19T15:09:31.410Z,14.43
2024-01-19T15:11:59.805Z,14.18
2024-01-19T15:14:28.505Z,14.08
2024-01-19T15:16:57.134Z,14.27
2024-01-19T15:19:25.949Z,14.32
2024-01-19T15:21:56.768Z,14.28
2024-01-19T15:24:25.408Z,13.98
2024-01-19T15:26:54.155Z,14.07
2024-01-19T15:29:23.073Z,13.88
2024-01-19T15:31:51.468Z,13.94
2024-01-19T15:34:20.198Z,13.73
2024-01-19T15:36:48.586Z,13.58
2024-01-19T15:39:17.433Z,13.64
2024-01-19T15:41:45.974Z,13.71
2024-01-19T15:44:14.557Z,13.72
2024-01-19T15:46:43.278Z,13.64
2024-01-19T15:49:11.880Z,13.48
2024-01-19T15:51:40.650Z,13.25
2024-01-19T15:54:09.113Z,13.21
2024-01-19T15:56:38.718Z,13.16
2024-01-19T15:59:08.990Z,13.11
2024-01-19T16:01:41.625Z,12.57
2024-01-19T16:04:11.148Z,12.57
2024-01-19T16:06:40.294Z,12.67
2024-01-19T16:09:12.244Z,12.73
2024-01-19T16:11:40.872Z,12.73
2024-01-19T16:14:09.715Z,12.47
2024-01-19T16:16:38.407Z,12.39
2024-01-19T16:19:07.677Z,12.07
2024-01-19T16:21:36.370Z,12.32
2024-01-19T16:24:05.208Z,12.25
2024-01-19T16:26:34.279Z,12.16
2024-01-19T16:29:02.955Z,12.26
2024-01-19T16:31:31.460Z,12.32
2024-01-19T16:34:00.092Z,12.34
2024-01-19T16:36:28.910Z,12.29
2024-01-19T16:38:57.552Z,12.11
2024-01-19T16:41:26.234Z,12.28
2024-01-19T16:43:55.072Z,11.99
2024-01-19T16:46:24.964Z,11.77
2024-01-19T16:48:53.788Z,11.93
2024-01-19T16:51:24.515Z,11.66
2024-01-19T16:53:59.887Z,11.62
2024-01-19T16:56:33.249Z,11.74
2024-01-19T16:59:03.725Z,11.76
2024-01-19T17:01:33.079Z,11.94
2024-01-19T17:04:01.918Z,12.10
2024-01-19T17:06:30.397Z,12.19
2024-01-19T17:09:00.200Z,12.20
2024-01-19T17:11:29.545Z,12.26
2024-01-19T17:14:01.945Z,12.32
2024-01-19T17:16:31.153Z,12.38
2024-01-19T17:18:59.934Z,12.37
2024-01-19T17:21:29.106Z,11.98
2024-01-19T17:23:58.745Z,12.19
2024-01-19T17:26:29.200Z,12.23
2024-01-19T17:29:00.861Z,11.90
2024-01-19T17:31:29.660Z,12.00
2024-01-19T17:34:07.164Z,12.01
2024-01-19T17:36:39.512Z,12.00
2024-01-19T17:39:08.558Z,11.91
2024-01-19T17:41:43.928Z,11.83
2024-01-19T17:44:12.609Z,11.68
2024-01-19T17:46:41.291Z,11.69
2024-01-19T17:49:10.064Z,11.75
2024-01-19T17:51:38.878Z,11.81
2024-01-19T17:54:08.420Z,11.79
2024-01-19T17:56:38.941Z,11.72
2024-01-19T17:59:08.893Z,11.68
2024-01-19T18:01:37.775Z,11.64
2024-01-19T18:04:06.714Z,11.60
2024-01-19T18:06:37.881Z,11.55
2024-01-19T18:09:08.621Z,11.63
2024-01-19T18:11:37.904Z,11.56
2024-01-19T18:14:06.772Z,11.52
2024-01-19T18:16:36.414Z,11.54
2024-01-19T18:19:05.655Z,11.55
2024-01-19T18:21:36.226Z,11.53
2024-01-19T18:24:07.725Z,11.50
2024-01-19T18:26:36.661Z,11.45
2024-01-19T18:29:06.160Z,11.06
2024-01-19T18:31:34.933Z,11.13
2024-01-19T18:34:04.023Z,11.18
2024-01-19T18:36:33.102Z,11.21
2024-01-19T18:39:03.368Z,11.15
2024-01-19T18:41:32.881Z,11.14
2024-01-19T18:44:01.551Z,11.27
2024-01-19T18:46:30.141Z,11.30
2024-01-19T18:48:58.909Z,11.33
2024-01-19T18:51:27.544Z,11.46
2024-01-19T18:53:56.155Z,11.44
2024-01-19T18:56:24.896Z,11.51
2024-01-19T18:58:53.728Z,11.56
2024-01-19T19:01:24.432Z,11.43
2024-01-19T19:03:53.410Z,11.30
2024-01-19T19:06:23.567Z,11.30
2024-01-19T19:08:52.381Z,11.18
2024-01-19T19:11:22.404Z,11.04
2024-01-19T19:13:51.721Z,10.76
2024-01-19T19:16:30.233Z,10.45
2024-01-19T19:19:05.658Z,10.20
2024-01-19T19:21:34.370Z,10.06
2024-01-19T19:24:06.025Z,9.65
2024-01-19T19:26:34.788Z,9.39
2024-01-19T19:29:07.629Z,9.13
2024-01-19T19:31:36.634Z,9.07
2024-01-19T19:34:08.376Z,8.96
2024-01-19T19:36:37.266Z,8.84
2024-01-19T19:39:05.941Z,8.82
2024-01-19T19:41:38.287Z,8.82
2024-01-19T19:44:06.772Z,8.61
2024-01-19T19:46:35.358Z,8.73
2024-01-19T19:49:06.758Z,8.76
2024-01-19T19:51:38.665Z,8.58
2024-01-19T19:54:08.408Z,8.54
2024-01-19T19:56:39.841Z,8.50
2024-01-19T19:59:09.171Z,8.46
2024-01-19T20:01:37.916Z,8.18
2024-01-19T20:04:07.064Z,8.14
2024-01-19T20:06:35.583Z,7.84
2024-01-19T20:09:04.340Z,7.75
2024-01-19T20:11:35.282Z,7.49
2024-01-19T20:14:05.155Z,7.48
2024-01-19T20:16:34.035Z,7.16
2024-01-19T20:19:08.982Z,7.17
2024-01-19T20:21:39.056Z,6.95
2024-01-19T20:24:08.236Z,6.92
2024-01-19T20:26:37.307Z,6.88
2024-01-19T20:29:06.482Z,6.91
2024-01-19T20:31:35.113Z,6.83
2024-01-19T20:34:06.917Z,6.55
2024-01-19T20:36:35.830Z,6.53
2024-01-19T20:39:05.216Z,6.46
2024-01-19T20:41:37.196Z,6.36
2024-01-19T20:44:08.131Z,6.37
2024-01-19T20:46:36.780Z,6.22
2024-01-19T20:49:05.543Z,6.18
2024-01-19T20:51:36.782Z,6.10
2024-01-19T20:54:06.426Z,6.07
2024-01-19T20:56:35.085Z,6.13
2024-01-19T20:59:04.047Z,6.10
2024-01-19T21:01:32.845Z,5.90
2024-01-19T21:04:01.773Z,6.11
2024-01-19T21:06:30.788Z,6.06
2024-01-19T21:08:59.477Z,6.08
2024-01-19T21:11:28.582Z,6.09
2024-01-19T21:13:58.297Z,5.97
2024-01-19T21:16:27.883Z,6.01
2024-01-19T21:18:57.202Z,5.87
2024-01-19T21:21:26.255Z,6.00
2024-01-19T21:23:55.445Z,6.01
2024-01-19T21:26:25.612Z,6.09
2024-01-19T21:28:54.461Z,6.01
2024-01-19T21:31:23.240Z,6.06
2024-01-19T21:33:51.982Z,6.04
2024-01-19T21:36:20.879Z,5.92
2024-01-19T21:38:52.252Z,5.87
2024-01-19T21:41:21.845Z,5.73
2024-01-19T21:43:51.332Z,5.49
2024-01-19T21:46:20.308Z,5.48
2024-01-19T21:48:49.702Z,5.44
2024-01-19T21:51:18.823Z,5.36
2024-01-19T21:53:50.611Z,5.10
2024-01-19T21:56:20.136Z,5.01
2024-01-19T21:58:48.947Z,4.83
2024-01-19T22:01:21.189Z,4.87
2024-01-19T22:03:50.843Z,4.80
2024-01-19T22:06:20.017Z,4.88
2024-01-19T22:08:48.728Z,4.87
2024-01-19T22:11:17.716Z,4.89
2024-01-19T22:13:46.828Z,4.77
2024-01-19T22:16:15.817Z,4.67
2024-01-19T22:18:45.185Z,4.63
2024-01-19T22:21:13.523Z,4.41
2024-01-19T22:23:41.678Z,4.33
2024-01-19T22:26:10.158Z,4.20
2024-01-19T22:28:38.566Z,4.01
2024-01-19T22:31:07.838Z,4.00
2024-01-19T22:33:37.199Z,3.96
2024-01-19T22:36:14.998Z,3.90
2024-01-19T22:38:48.237Z,3.80
2024-01-19T22:41:16.532Z,3.74
2024-01-19T22:43:45.473Z,3.66
2024-01-19T22:46:13.659Z,3.58
2024-01-19T22:48:42.720Z,3.45
2024-01-19T22:51:13.818Z,3.36
2024-01-19T22:53:42.798Z,3.38
2024-01-19T22:56:11.749Z,3.29
2024-01-19T22:58:41.945Z,3.23
2024-01-19T23:01:11.657Z,3.38
2024-01-19T23:03:40.131Z,3.44
2024-01-19T23:06:08.753Z,3.45
2024-01-19T23:08:36.729Z,3.43
2024-01-19T23:11:05.111Z,3.47
2024-01-19T23:13:33.301Z,3.62
2024-01-19T23:16:02.392Z,3.61
2024-01-19T23:18:31.306Z,3.82
2024-01-19T23:20:59.558Z,3.85
2024-01-19T23:23:27.742Z,4.00
2024-01-19T23:25:56.074Z,4.19
2024-01-19T23:28:24.211Z,3.90
2024-01-19T23:30:53.123Z,3.92
2024-01-19T23:33:23.174Z,3.82
2024-01-19T23:35:51.274Z,3.66
2024-01-19T23:38:19.587Z,3.68
2024-01-19T23:40:47.775Z,3.46
2024-01-19T23:43:16.251Z,3.46
2024-01-19T23:45:44.525Z,3.41
2024-01-19T23:48:12.581Z,3.25
2024-01-19T23:50:40.981Z,3.06
2024-01-19T23:53:09.167Z,2.96
2024-01-19T23:55:37.403Z,2.75
2024-01-19T23:58:05.397Z,2.77
